createdAt,value
2022-09-17T00:01:33.020Z,98.10
2022-09-17T00:04:04.021Z,97.50
2022-09-17T00:06:34.119Z,95.10
2022-09-17T00:09:02.274Z,90.20
2022-09-17T00:11:32.904Z,95.20
2022-09-17T00:14:02.180Z,92.40
2022-09-17T00:16:35.922Z,98.00
2022-09-17T00:19:06.023Z,94.90
2022-09-17T00:21:33.844Z,95.90
2022-09-17T00:24:03.250Z,99.80
2022-09-17T00:26:32.162Z,74.60
2022-09-17T00:29:01.152Z,64.50
2022-09-17T00:31:30.153Z,67.90
2022-09-17T00:34:05.459Z,85.30
2022-09-17T00:36:36.024Z,87.30
2022-09-17T00:39:05.233Z,91.20
2022-09-17T00:41:34.810Z,94.80
2022-09-17T00:44:39.285Z,99.40
2022-09-17T00:47:41.851Z,99.90
2022-09-17T00:50:27.688Z,99.90
2022-09-17T00:53:21.230Z,99.90
2022-09-17T00:55:57.557Z,99.90
2022-09-17T00:58:27.086Z,99.90
2022-09-17T01:00:57.536Z,99.90
2022-09-17T01:03:25.306Z,99.90
2022-09-17T01:06:24.959Z,96.90
2022-09-17T01:08:58.453Z,98.30
2022-09-17T01:12:04.791Z,99.90
2022-09-17T01:14:52.665Z,95.50
2022-09-17T01:18:11.144Z,97.00
2022-09-17T01:20:57.256Z,99.00
2022-09-17T01:23:39.686Z,99.70
2022-09-17T01:26:07.226Z,99.50
2022-09-17T01:28:43.701Z,99.20
2022-09-17T01:31:16.398Z,97.50
2022-09-17T01:33:52.047Z,99.90
2022-09-17T01:36:29.773Z,99.90
2022-09-17T01:39:19.568Z,99.90
2022-09-17T01:42:19.899Z,99.90
2022-09-17T01:45:33.762Z,99.90
2022-09-17T01:48:10.503Z,99.90
2022-09-17T01:50:44.521Z,99.90
2022-09-17T01:53:16.977Z,99.90
2022-09-17T01:55:49.119Z,99.90
2022-09-17T01:58:23.305Z,99.90
2022-09-17T02:00:56.204Z,99.90
2022-09-17T02:03:42.700Z,99.90
2022-09-17T02:06:15.312Z,99.90
2022-09-17T02:08:57.181Z,99.90
2022-09-17T02:11:25.102Z,99.90
2022-09-17T02:14:05.038Z,99.90
2022-09-17T02:16:35.932Z,99.90
2022-09-17T02:19:14.470Z,99.90
2022-09-17T02:22:17.842Z,99.90
2022-09-17T02:25:21.726Z,99.90
2022-09-17T02:28:04.519Z,98.60
2022-09-17T02:30:32.501Z,99.90
2022-09-17T02:33:04.510Z,99.90
2022-09-17T02:35:33.270Z,98.50
2022-09-17T02:38:01.274Z,96.00
2022-09-17T02:40:35.336Z,94.80
2022-09-17T02:43:19.523Z,95.60
2022-09-17T02:46:10.747Z,92.90
2022-09-17T02:49:10.389Z,90.20
2022-09-17T02:51:44.062Z,92.90
2022-09-17T02:54:34.144Z,97.60
2022-09-17T02:57:30.332Z,91.00
2022-09-17T03:00:19.206Z,84.70
2022-09-17T03:02:55.076Z,85.60
2022-09-17T03:05:23.993Z,71.20
2022-09-17T03:07:51.752Z,70.30
2022-09-17T03:10:19.896Z,73.10
2022-09-17T03:12:47.478Z,75.00
2022-09-17T03:15:15.154Z,72.90
2022-09-17T03:17:42.710Z,71.90
2022-09-17T03:20:10.470Z,78.80
2022-09-17T03:22:38.063Z,82.10
2022-09-17T03:25:06.018Z,83.40
2022-09-17T03:27:33.571Z,87.10
2022-09-17T03:30:01.633Z,93.60
2022-09-17T03:32:31.118Z,92.50
2022-09-17T03:34:58.652Z,92.70
2022-09-17T03:37:32.847Z,95.70
2022-09-17T03:40:00.943Z,99.40
2022-09-17T03:42:28.542Z,99.90
2022-09-17T03:44:56.920Z,98.70
2022-09-17T03:47:27.581Z,99.90
2022-09-17T03:49:55.665Z,99.90
2022-09-17T03:52:26.236Z,99.90
2022-09-17T03:54:53.822Z,99.90
2022-09-17T03:57:22.740Z,99.90
2022-09-17T03:59:50.300Z,99.90
2022-09-17T04:02:18.213Z,99.90
2022-09-17T04:04:45.837Z,99.90
2022-09-17T04:07:13.444Z,99.80
2022-09-17T04:09:40.988Z,99.90
2022-09-17T04:12:08.568Z,99.90
2022-09-17T04:14:36.219Z,99.90
2022-09-17T04:17:05.243Z,94.60
2022-09-17T04:19:34.596Z,91.90
2022-09-17T04:22:02.131Z,91.60
2022-09-17T04:24:29.906Z,87.40
2022-09-17T04:26:57.464Z,88.70
2022-09-17T04:29:28.257Z,81.60
2022-09-17T04:31:55.794Z,91.10
2022-09-17T04:34:23.365Z,80.00
2022-09-17T04:36:50.922Z,71.20
2022-09-17T04:39:18.489Z,68.10
2022-09-17T04:41:46.230Z,73.00
2022-09-17T04:44:13.800Z,69.60
2022-09-17T04:46:41.422Z,74.40
2022-09-17T04:49:08.984Z,78.70
2022-09-17T04:51:36.539Z,82.40
2022-09-17T04:54:04.339Z,82.10
2022-09-17T04:56:31.905Z,88.20
2022-09-17T04:58:59.447Z,91.80
2022-09-17T05:01:27.076Z,91.60
2022-09-17T05:03:54.728Z,95.00
2022-09-17T05:06:22.286Z,94.50
2022-09-17T05:08:50.527Z,94.90
2022-09-17T05:11:18.311Z,94.70
2022-09-17T05:13:45.889Z,92.00
2022-09-17T05:16:13.510Z,90.90
2022-09-17T05:18:41.092Z,89.00
2022-09-17T05:21:08.646Z,85.40
2022-09-17T05:23:36.323Z,83.00
2022-09-17T05:26:04.022Z,88.10
2022-09-17T05:28:39.083Z,97.30
2022-09-17T05:31:06.727Z,99.90
2022-09-17T05:33:34.629Z,99.90
2022-09-17T05:36:02.433Z,99.90
2022-09-17T05:38:32.996Z,99.90
2022-09-17T05:41:05.447Z,99.90
2022-09-17T05:43:34.360Z,99.90
2022-09-17T05:46:04.898Z,99.90
2022-09-17T05:48:33.074Z,99.90
2022-09-17T05:51:00.716Z,99.90
2022-09-17T05:53:28.353Z,99.90
2022-09-17T05:55:59.330Z,99.90
2022-09-17T05:58:27.521Z,99.90
2022-09-17T06:00:55.048Z,99.90
2022-09-17T06:03:22.925Z,99.90
2022-09-17T06:05:55.583Z,99.90
2022-09-17T06:08:23.769Z,99.90
2022-09-17T06:10:51.675Z,99.90
2022-09-17T06:13:20.630Z,99.90
2022-09-17T06:15:52.882Z,99.90
2022-09-17T06:18:20.950Z,99.90
2022-09-17T06:20:59.607Z,99.90
2022-09-17T06:23:27.246Z,99.90
2022-09-17T06:25:56.976Z,99.90
2022-09-17T06:28:26.019Z,94.00
2022-09-17T06:30:55.909Z,96.10
2022-09-17T06:33:24.046Z,97.50
2022-09-17T06:36:03.106Z,75.30
2022-09-17T06:38:32.797Z,39.90
2022-09-17T06:41:00.858Z,1.00
2022-09-17T06:43:28.973Z,2.70
2022-09-17T06:46:01.928Z,1.00
2022-09-17T06:48:33.413Z,1.00
2022-09-17T06:51:10.322Z,1.00
2022-09-17T06:53:39.165Z,7.50
2022-09-17T06:56:08.508Z,1.00
2022-09-17T06:58:41.884Z,1.00
2022-09-17T07:01:11.227Z,1.00
2022-09-17T07:03:39.494Z,1.00
2022-09-17T07:06:10.805Z,1.00
2022-09-17T07:08:39.431Z,1.00
2022-09-17T07:11:08.218Z,1.00
2022-09-17T07:13:36.237Z,1.00
2022-09-17T07:16:05.677Z,1.00
2022-09-17T07:18:33.858Z,1.00
2022-09-17T07:21:04.751Z,1.00
2022-09-17T07:23:37.082Z,1.00
2022-09-17T07:26:12.591Z,1.00
2022-09-17T07:28:40.899Z,1.00
2022-09-17T07:31:13.661Z,1.00
2022-09-17T07:33:42.994Z,1.00
2022-09-17T07:36:12.548Z,1.00
2022-09-17T07:38:40.268Z,1.00
2022-09-17T07:41:12.968Z,1.00
2022-09-17T07:43:41.358Z,1.00
2022-09-17T07:46:15.010Z,1.00
2022-09-17T07:48:42.998Z,1.00
2022-09-17T07:51:25.463Z,1.00
2022-09-17T07:53:53.999Z,1.00
2022-09-17T07:56:22.493Z,1.00
2022-09-17T07:58:52.594Z,1.00
2022-09-17T08:01:23.250Z,1.00
2022-09-17T08:03:52.706Z,1.00
2022-09-17T08:06:28.622Z,1.00
2022-09-17T08:08:57.740Z,1.00
2022-09-17T08:11:51.797Z,1.00
2022-09-17T08:14:15.973Z,1.00
2022-09-17T08:16:45.594Z,1.00
2022-09-17T08:19:13.237Z,1.00
2022-09-17T08:21:40.943Z,1.00
2022-09-17T08:24:08.637Z,1.00
2022-09-17T08:26:36.264Z,1.00
2022-09-17T08:29:04.394Z,1.00
2022-09-17T08:31:33.346Z,99.90
2022-09-17T08:34:08.703Z,99.90
2022-09-17T08:37:22.540Z,1.00
2022-09-17T08:39:50.135Z,1.00
2022-09-17T08:42:46.596Z,1.00
2022-09-17T08:45:18.963Z,1.00
2022-09-17T08:47:48.259Z,37.60
2022-09-17T08:50:32.702Z,1.00
2022-09-17T08:53:21.264Z,1.00
2022-09-17T08:56:18.220Z,1.00
2022-09-17T08:59:21.697Z,1.00
2022-09-17T09:01:57.337Z,1.00
2022-09-17T09:05:13.361Z,99.90
2022-09-17T09:07:47.259Z,1.00
2022-09-17T09:10:23.345Z,99.90
2022-09-17T09:12:58.191Z,99.90
2022-09-17T09:15:51.365Z,99.90
2022-09-17T09:18:21.810Z,99.90
2022-09-17T09:20:57.772Z,99.90
2022-09-17T09:23:49.047Z,1.00
2022-09-17T09:26:19.404Z,1.00
2022-09-17T09:28:49.827Z,1.60
2022-09-17T09:31:48.704Z,1.00
2022-09-17T09:34:16.965Z,1.00
2022-09-17T09:36:45.438Z,99.90
2022-09-17T09:39:21.971Z,99.90
2022-09-17T09:41:55.455Z,1.00
2022-09-17T09:44:25.091Z,1.00
2022-09-17T09:47:09.940Z,99.90
2022-09-17T09:50:08.120Z,99.90
2022-09-17T09:52:44.401Z,99.90
2022-09-17T09:55:17.738Z,99.90
2022-09-17T09:57:50.036Z,1.00
2022-09-17T10:00:31.000Z,1.00
2022-09-17T10:03:16.583Z,1.00
2022-09-17T10:06:06.150Z,99.90
2022-09-17T10:08:36.917Z,28.50
2022-09-17T10:11:06.721Z,1.00
2022-09-17T10:13:36.604Z,97.40
2022-09-17T10:16:27.690Z,99.90
2022-09-17T10:19:14.260Z,1.00
2022-09-17T10:21:43.261Z,1.00
2022-09-17T10:24:28.753Z,99.90
2022-09-17T10:27:11.988Z,99.90
2022-09-17T10:29:44.636Z,1.00
2022-09-17T10:32:20.668Z,1.00
2022-09-17T10:35:14.343Z,1.00
2022-09-17T10:37:48.846Z,99.90
2022-09-17T10:40:28.342Z,99.90
2022-09-17T10:43:16.310Z,1.00
2022-09-17T10:45:53.446Z,99.90
2022-09-17T10:48:22.475Z,99.90
2022-09-17T10:50:55.724Z,99.90
2022-09-17T10:53:25.795Z,99.90
2022-09-17T10:56:10.662Z,1.00
2022-09-17T10:58:58.218Z,99.90
2022-09-17T11:01:48.063Z,1.00
2022-09-17T11:04:39.327Z,1.00
2022-09-17T11:07:25.407Z,99.90
2022-09-17T11:10:02.620Z,99.90
2022-09-17T11:12:42.009Z,1.00
2022-09-17T11:15:23.786Z,98.50
2022-09-17T11:18:19.606Z,99.90
2022-09-17T11:21:08.611Z,1.00
2022-09-17T11:24:13.083Z,1.00
2022-09-17T11:27:03.986Z,1.00
2022-09-17T11:29:43.535Z,1.00
2022-09-17T11:32:32.596Z,1.00
2022-09-17T11:35:15.963Z,1.00
2022-09-17T11:37:59.727Z,1.00
2022-09-17T11:41:04.267Z,1.00
2022-09-17T11:43:35.527Z,1.00
2022-09-17T11:46:18.031Z,99.90
2022-09-17T11:48:51.499Z,99.90
2022-09-17T11:51:38.257Z,99.90
2022-09-17T11:54:23.020Z,99.90
2022-09-17T11:57:13.986Z,99.90
2022-09-17T12:00:07.839Z,99.90
2022-09-17T12:03:10.683Z,99.90
2022-09-17T12:05:54.901Z,99.90
2022-09-17T12:08:44.336Z,99.90
2022-09-17T12:11:39.316Z,99.90
2022-09-17T12:14:18.295Z,99.90
2022-09-17T12:16:49.669Z,99.90
2022-09-17T12:19:47.947Z,99.90
2022-09-17T12:22:22.619Z,99.90
2022-09-17T12:24:51.446Z,99.90
2022-09-17T12:27:21.859Z,99.90
2022-09-17T12:30:19.292Z,99.90
2022-09-17T12:33:14.876Z,99.90
2022-09-17T12:36:05.575Z,1.00
2022-09-17T12:39:04.158Z,99.90
2022-09-17T12:42:02.576Z,99.90
2022-09-17T12:44:40.989Z,99.90
2022-09-17T12:47:32.573Z,99.90
2022-09-17T12:50:18.175Z,99.90
2022-09-17T12:52:53.968Z,99.90
2022-09-17T12:55:37.061Z,1.00
2022-09-17T12:58:27.200Z,1.00
2022-09-17T13:01:07.184Z,99.90
2022-09-17T13:03:50.510Z,99.90
2022-09-17T13:06:23.724Z,99.90
2022-09-17T13:09:26.030Z,99.90
2022-09-17T13:12:07.805Z,99.90
2022-09-17T13:14:48.399Z,1.00
2022-09-17T13:17:39.222Z,99.90
2022-09-17T13:20:22.415Z,99.90
2022-09-17T13:22:55.640Z,99.90
2022-09-17T13:25:24.546Z,99.90
2022-09-17T13:28:12.850Z,99.90
2022-09-17T13:31:04.300Z,99.90
2022-09-17T13:33:58.264Z,99.90
2022-09-17T13:36:41.097Z,99.90
2022-09-17T13:39:30.384Z,99.90
2022-09-17T13:42:19.606Z,1.00
2022-09-17T13:45:13.224Z,99.90
2022-09-17T13:47:54.888Z,99.90
2022-09-17T13:50:29.940Z,99.90
2022-09-17T13:52:59.829Z,99.90
2022-09-17T13:55:38.125Z,99.90
2022-09-17T13:58:19.919Z,99.90
2022-09-17T14:01:00.670Z,99.90
2022-09-17T14:03:31.351Z,99.90
2022-09-17T14:06:19.473Z,99.90
2022-09-17T14:08:50.095Z,99.90
2022-09-17T14:11:23.594Z,1.00
2022-09-17T14:13:55.264Z,1.00
2022-09-17T14:16:28.506Z,1.00
2022-09-17T14:19:15.687Z,1.00
2022-09-17T14:22:01.460Z,99.90
2022-09-17T14:24:44.692Z,99.90
2022-09-17T14:27:12.290Z,99.90
2022-09-17T14:30:04.351Z,99.90
2022-09-17T14:32:45.567Z,1.00
2022-09-17T14:35:39.712Z,1.00
2022-09-17T14:38:16.274Z,1.00
2022-09-17T14:40:46.316Z,1.00
2022-09-17T14:43:27.370Z,1.00
2022-09-17T14:45:56.238Z,80.20
2022-09-17T14:48:26.672Z,62.30
2022-09-17T14:51:32.001Z,69.60
2022-09-17T14:54:14.385Z,99.90
2022-09-17T14:57:03.042Z,99.90
2022-09-17T14:59:47.104Z,99.90
2022-09-17T15:02:30.204Z,34.40
2022-09-17T15:04:58.533Z,1.00
2022-09-17T15:07:30.051Z,1.00
2022-09-17T15:10:14.951Z,1.00
2022-09-17T15:12:45.045Z,61.40
2022-09-17T15:15:18.801Z,5.10
2022-09-17T15:17:48.103Z,51.60
2022-09-17T15:20:22.156Z,99.90
2022-09-17T15:22:57.209Z,99.90
2022-09-17T15:25:29.120Z,96.20
2022-09-17T15:28:00.387Z,99.90
2022-09-17T15:30:28.114Z,99.90
2022-09-17T15:32:57.539Z,99.90
2022-09-17T15:35:30.903Z,69.50
2022-09-17T15:38:22.429Z,43.90
2022-09-17T15:40:51.901Z,11.40
2022-09-17T15:43:31.557Z,11.10
2022-09-17T15:46:26.828Z,1.00
2022-09-17T15:48:56.517Z,3.90
2022-09-17T15:51:31.941Z,38.50
2022-09-17T15:54:04.581Z,1.00
2022-09-17T15:56:38.572Z,1.00
2022-09-17T15:59:23.327Z,99.90
2022-09-17T16:01:54.907Z,99.90
2022-09-17T16:04:30.318Z,1.00
2022-09-17T16:07:12.932Z,99.90
2022-09-17T16:09:47.901Z,9.00
2022-09-17T16:12:23.450Z,1.00
2022-09-17T16:14:54.785Z,1.00
2022-09-17T16:17:35.215Z,1.00
2022-09-17T16:20:09.996Z,1.00
2022-09-17T16:22:37.725Z,99.90
2022-09-17T16:25:06.047Z,1.00
2022-09-17T16:27:45.442Z,1.00
2022-09-17T16:30:17.015Z,99.90
2022-09-17T16:32:44.925Z,99.90
2022-09-17T16:35:17.238Z,1.00
2022-09-17T16:37:49.358Z,1.00
2022-09-17T16:40:17.870Z,1.00
2022-09-17T16:42:51.815Z,1.00
2022-09-17T16:45:20.382Z,1.00
2022-09-17T16:47:49.607Z,17.40
2022-09-17T16:50:33.050Z,64.50
2022-09-17T16:53:04.900Z,57.30
2022-09-17T16:55:33.095Z,1.00
2022-09-17T16:58:00.933Z,17.00
2022-09-17T17:00:31.387Z,20.50
2022-09-17T17:02:59.214Z,1.00
2022-09-17T17:05:27.160Z,1.00
2022-09-17T17:07:55.806Z,1.00
2022-09-17T17:10:26.519Z,1.00
2022-09-17T17:12:54.239Z,1.00
2022-09-17T17:15:22.445Z,1.00
2022-09-17T17:17:50.496Z,1.00
2022-09-17T17:20:18.139Z,13.90
2022-09-17T17:22:45.775Z,1.00
2022-09-17T17:25:14.594Z,1.00
2022-09-17T17:27:42.304Z,8.10
2022-09-17T17:30:10.695Z,3.00
2022-09-17T17:32:41.302Z,24.70
2022-09-17T17:35:09.790Z,64.90
2022-09-17T17:37:37.384Z,99.90
2022-09-17T17:40:07.260Z,80.70
2022-09-17T17:42:38.129Z,99.90
2022-09-17T17:45:07.202Z,99.90
2022-09-17T17:47:35.432Z,99.90
2022-09-17T17:50:05.069Z,99.90
2022-09-17T17:52:36.479Z,99.90
2022-09-17T17:55:05.215Z,99.90
2022-09-17T17:57:33.424Z,99.90
2022-09-17T18:00:01.503Z,99.90
2022-09-17T18:02:29.278Z,99.90
2022-09-17T18:05:00.802Z,99.90
2022-09-17T18:07:31.123Z,99.90
2022-09-17T18:09:59.897Z,99.90
2022-09-17T18:12:27.544Z,99.90
2022-09-17T18:14:55.280Z,99.90
2022-09-17T18:17:22.917Z,99.90
2022-09-17T18:19:52.080Z,99.90
2022-09-17T18:22:20.024Z,99.90
2022-09-17T18:24:47.623Z,99.90
2022-09-17T18:27:15.403Z,99.90
2022-09-17T18:29:43.068Z,99.90
2022-09-17T18:32:10.762Z,99.90
2022-09-17T18:34:38.376Z,99.90
2022-09-17T18:37:05.962Z,99.90
2022-09-17T18:42:27.152Z,99.90
2022-09-17T18:44:54.747Z,99.90
2022-09-17T18:47:22.422Z,99.90
2022-09-17T18:49:50.156Z,99.90
2022-09-17T18:52:17.811Z,99.90
2022-09-17T18:54:46.033Z,99.90
2022-09-17T18:57:13.811Z,99.90
2022-09-17T18:59:41.609Z,99.90
2022-09-17T19:02:12.990Z,99.90
2022-09-17T19:04:40.655Z,99.90
2022-09-17T19:07:08.351Z,99.90
2022-09-17T19:09:36.528Z,99.90
2022-09-17T19:12:04.338Z,99.90
2022-09-17T19:14:31.967Z,99.90
2022-09-17T19:17:00.849Z,99.90
2022-09-17T19:19:29.033Z,99.90
2022-09-17T19:21:58.350Z,99.90
2022-09-17T19:24:25.997Z,99.90
2022-09-17T19:26:53.768Z,99.90
2022-09-17T19:29:24.649Z,99.90
2022-09-17T19:31:52.341Z,99.90
2022-09-17T19:34:19.988Z,99.90
2022-09-17T19:36:47.702Z,99.90
2022-09-17T19:39:18.345Z,99.90
2022-09-17T19:41:45.973Z,99.90
2022-09-17T19:44:13.636Z,99.90
2022-09-17T19:46:41.331Z,99.90
2022-09-17T19:49:10.762Z,99.90
2022-09-17T19:51:38.411Z,99.90
2022-09-17T19:54:07.962Z,99.90
2022-09-17T19:56:35.630Z,99.90
2022-09-17T19:59:03.675Z,99.90
2022-09-17T20:01:31.514Z,99.90
2022-09-17T20:03:59.340Z,99.90
2022-09-17T20:06:27.173Z,99.90
2022-09-17T20:08:55.180Z,99.90
2022-09-17T20:11:25.271Z,99.90
2022-09-17T20:14:06.403Z,99.90
2022-09-17T20:16:36.236Z,99.90
2022-09-17T20:19:06.159Z,99.90
2022-09-17T20:21:34.652Z,99.90
2022-09-17T20:24:02.723Z,99.90
2022-09-17T20:26:30.334Z,99.90
2022-09-17T20:28:58.046Z,99.90
2022-09-17T20:31:31.203Z,99.90
2022-09-17T20:34:01.321Z,99.90
2022-09-17T20:36:31.345Z,99.90
2022-09-17T20:39:21.819Z,99.90
2022-09-17T20:41:47.539Z,99.90
2022-09-17T20:44:15.265Z,99.90
2022-09-17T20:46:42.923Z,99.90
2022-09-17T20:49:11.848Z,99.90
2022-09-17T20:51:39.457Z,99.90
2022-09-17T20:54:08.274Z,99.90
2022-09-17T20:56:36.194Z,99.90
2022-09-17T20:59:14.996Z,99.90
2022-09-17T21:01:45.355Z,99.90
2022-09-17T21:04:16.570Z,99.90
2022-09-17T21:06:45.438Z,99.90
2022-09-17T21:09:17.080Z,99.90
2022-09-17T21:11:48.647Z,99.90
2022-09-17T21:14:17.989Z,99.90
2022-09-17T21:16:46.466Z,99.90
2022-09-17T21:19:16.490Z,99.90
2022-09-17T21:21:44.745Z,99.90
2022-09-17T21:24:12.411Z,99.90
2022-09-17T21:26:40.147Z,99.90
2022-09-17T21:29:07.839Z,99.90
2022-09-17T21:31:37.429Z,99.90
2022-09-17T21:34:10.111Z,99.90
2022-09-17T21:36:39.356Z,99.90
2022-09-17T21:39:11.331Z,99.90
2022-09-17T21:41:42.626Z,99.90
2022-09-17T21:44:11.954Z,99.90
2022-09-17T21:46:40.738Z,99.90
2022-09-17T21:49:08.976Z,99.90
2022-09-17T21:51:39.148Z,99.90
2022-09-17T21:54:12.326Z,99.90
2022-09-17T21:57:13.008Z,99.90
2022-09-17T21:59:43.112Z,99.90
2022-09-17T22:02:11.120Z,99.90
2022-09-17T22:04:38.839Z,99.90
2022-09-17T22:07:09.402Z,99.90
2022-09-17T22:09:37.042Z,99.90
2022-09-17T22:12:06.485Z,99.90
2022-09-17T22:14:34.115Z,99.90
2022-09-17T22:17:01.736Z,99.90
2022-09-17T22:19:29.352Z,99.90
2022-09-17T22:21:57.150Z,99.90
2022-09-17T22:24:25.313Z,99.90
2022-09-17T22:26:57.769Z,99.90
2022-09-17T22:29:28.115Z,99.90
2022-09-17T22:31:57.145Z,99.90
2022-09-17T22:34:27.818Z,99.90
2022-09-17T22:36:55.520Z,99.90
2022-09-17T22:39:23.171Z,99.90
2022-09-17T22:41:51.125Z,99.90
2022-09-17T22:44:20.347Z,99.90
2022-09-17T22:46:50.563Z,99.90
2022-09-17T22:49:19.019Z,99.90
2022-09-17T22:51:47.271Z,99.90
2022-09-17T22:54:17.139Z,99.90
2022-09-17T22:56:45.894Z,99.90
2022-09-17T22:59:13.574Z,99.90
2022-09-17T23:01:41.657Z,99.90
2022-09-17T23:04:09.585Z,99.90
2022-09-17T23:06:38.919Z,99.90
2022-09-17T23:09:07.128Z,99.90
2022-09-17T23:11:37.881Z,99.90
2022-09-17T23:14:08.652Z,99.90
2022-09-17T23:16:39.675Z,99.90
2022-09-17T23:19:07.719Z,99.90
2022-09-17T23:21:35.356Z,99.90
2022-09-17T23:24:03.643Z,99.90
2022-09-17T23:26:31.435Z,99.90
2022-09-17T23:29:04.940Z,99.90
2022-09-17T23:31:35.164Z,99.90
2022-09-17T23:34:04.875Z,99.90
2022-09-17T23:36:35.988Z,99.90
2022-09-17T23:39:06.396Z,99.90
2022-09-17T23:41:42.984Z,99.90
2022-09-17T23:44:15.326Z,99.90
2022-09-17T23:46:45.275Z,99.90
2022-09-17T23:49:14.374Z,99.90
2022-09-17T23:51:42.431Z,99.90
2022-09-17T23:54:10.502Z,99.90
2022-09-17T23:56:40.157Z,99.90
2022-09-17T23:59:08.472Z,99.90
